JAY1VI EDLW-EYVI
Flight info
| Callsign | JAY1VI |
|---|---|
| Flight time | N/A |
| Altitude | 37000 |
| Route | HMM1U HMM M170 DOMJO Z851 ROBEG L980 HLZ DCT ALUKA L29 GRUDA N858 BOKSU DCT IRKAL |
| Aircraft | A320/M-SDE3FGHIRWY/LB1 |
Departure
| Time | N/A |
|---|---|
| Airport | Dortmund Airport (EDLW) |
Arrival
| Time | 2026-05-03 23:57 |
|---|---|
| Airport | Vilnius International Airport (EYVI) |
| Time | Latitude | Longitude | Altitude | Speed | Heading |
|---|---|---|---|---|---|
| 2026-05-03 23:19 | 53.67569 | 19.54827 | 36939 ft | 452 kts | 70° |
| 2026-05-03 23:20 | 53.68561 | 19.59860 | 36945 ft | 452 kts | 70° |
| 2026-05-03 23:20 | 53.70537 | 19.69934 | 36944 ft | 452 kts | 70° |
| 2026-05-03 23:21 | 53.72504 | 19.80026 | 36948 ft | 452 kts | 70° |
| 2026-05-03 23:21 | 53.74462 | 19.90124 | 36948 ft | 452 kts | 70° |
| 2026-05-03 23:22 | 53.77385 | 20.05288 | 36961 ft | 452 kts | 71° |
| 2026-05-03 23:22 | 53.79324 | 20.15411 | 36953 ft | 452 kts | 71° |
| 2026-05-03 23:23 | 53.81256 | 20.25533 | 36956 ft | 452 kts | 71° |
| 2026-05-03 23:23 | 53.83173 | 20.35662 | 36962 ft | 452 kts | 71° |
| 2026-05-03 23:24 | 53.85078 | 20.45798 | 36961 ft | 451 kts | 71° |
| 2026-05-03 23:24 | 53.86982 | 20.55925 | 36964 ft | 451 kts | 71° |
| 2026-05-03 23:25 | 53.88878 | 20.66063 | 36964 ft | 451 kts | 71° |
| 2026-05-03 23:25 | 53.90756 | 20.76210 | 36960 ft | 451 kts | 71° |
| 2026-05-03 23:26 | 53.92630 | 20.86365 | 36956 ft | 451 kts | 71° |
| 2026-05-03 23:26 | 53.94498 | 20.96517 | 36957 ft | 451 kts | 71° |
| 2026-05-03 23:27 | 53.96362 | 21.06677 | 36944 ft | 451 kts | 71° |
| 2026-05-03 23:27 | 53.98209 | 21.16846 | 36952 ft | 451 kts | 72° |
| 2026-05-03 23:28 | 54.00045 | 21.27038 | 36951 ft | 451 kts | 72° |
| 2026-05-03 23:28 | 54.01878 | 21.37241 | 36949 ft | 451 kts | 72° |
| 2026-05-03 23:29 | 54.03710 | 21.47438 | 36954 ft | 451 kts | 72° |
| 2026-05-03 23:29 | 54.05530 | 21.57654 | 36958 ft | 451 kts | 72° |
| 2026-05-03 23:30 | 54.07337 | 21.67871 | 36961 ft | 451 kts | 72° |
| 2026-05-03 23:30 | 54.09138 | 21.78100 | 36960 ft | 451 kts | 72° |
| 2026-05-03 23:31 | 54.10933 | 21.88347 | 36961 ft | 451 kts | 72° |
| 2026-05-03 23:31 | 54.12724 | 21.98599 | 36962 ft | 451 kts | 72° |
| 2026-05-03 23:32 | 54.14498 | 22.08862 | 36966 ft | 451 kts | 72° |
| 2026-05-03 23:32 | 54.15381 | 22.14006 | 36812 ft | 452 kts | 73° |
| 2026-05-03 23:32 | 54.16261 | 22.19141 | 36543 ft | 451 kts | 73° |
| 2026-05-03 23:33 | 54.17139 | 22.24279 | 36278 ft | 451 kts | 73° |
| 2026-05-03 23:33 | 54.18015 | 22.29417 | 36029 ft | 451 kts | 73° |
| 2026-05-03 23:33 | 54.18891 | 22.34556 | 35768 ft | 451 kts | 73° |
| 2026-05-03 23:33 | 54.19764 | 22.39701 | 35515 ft | 451 kts | 73° |
| 2026-05-03 23:34 | 54.20634 | 22.44851 | 35263 ft | 451 kts | 73° |
| 2026-05-03 23:34 | 54.21503 | 22.50005 | 35014 ft | 451 kts | 73° |
| 2026-05-03 23:34 | 54.22370 | 22.55155 | 34766 ft | 452 kts | 73° |
| 2026-05-03 23:34 | 54.23234 | 22.60317 | 34525 ft | 452 kts | 73° |
| 2026-05-03 23:35 | 54.24095 | 22.65483 | 34279 ft | 452 kts | 73° |
| 2026-05-03 23:35 | 54.24954 | 22.70653 | 34038 ft | 452 kts | 73° |
| 2026-05-03 23:35 | 54.25810 | 22.75818 | 33415 ft | 451 kts | 73° |
| 2026-05-03 23:35 | 54.26660 | 22.80946 | 32849 ft | 446 kts | 73° |
| 2026-05-03 23:36 | 54.27499 | 22.86026 | 32262 ft | 442 kts | 73° |
| 2026-05-03 23:36 | 54.28326 | 22.91067 | 31703 ft | 438 kts | 73° |
| 2026-05-03 23:36 | 54.29144 | 22.96070 | 31132 ft | 435 kts | 73° |
| 2026-05-03 23:36 | 54.29954 | 23.01040 | 30584 ft | 432 kts | 73° |
| 2026-05-03 23:37 | 54.30757 | 23.05969 | 30039 ft | 429 kts | 73° |
| 2026-05-03 23:37 | 54.31548 | 23.10875 | 29439 ft | 425 kts | 74° |
| 2026-05-03 23:37 | 54.32318 | 23.15735 | 28910 ft | 420 kts | 74° |
| 2026-05-03 23:37 | 54.33070 | 23.20546 | 28400 ft | 416 kts | 75° |
| 2026-05-03 23:38 | 54.33808 | 23.25308 | 27873 ft | 411 kts | 75° |
| 2026-05-03 23:38 | 54.34535 | 23.30014 | 27377 ft | 407 kts | 75° |
| 2026-05-03 23:38 | 54.35258 | 23.34691 | 26896 ft | 403 kts | 75° |
| 2026-05-03 23:38 | 54.35968 | 23.39301 | 26409 ft | 398 kts | 75° |
| 2026-05-03 23:39 | 54.36672 | 23.43873 | 25950 ft | 394 kts | 75° |
| 2026-05-03 23:39 | 54.37367 | 23.48393 | 25501 ft | 391 kts | 75° |
| 2026-05-03 23:39 | 54.38055 | 23.52879 | 25057 ft | 387 kts | 75° |
| 2026-05-03 23:39 | 54.38734 | 23.57330 | 24608 ft | 384 kts | 75° |
| 2026-05-03 23:40 | 54.39404 | 23.61749 | 24178 ft | 381 kts | 75° |
| 2026-05-03 23:40 | 54.40070 | 23.66139 | 23718 ft | 379 kts | 75° |
| 2026-05-03 23:40 | 54.40731 | 23.70502 | 23231 ft | 377 kts | 75° |
| 2026-05-03 23:40 | 54.41391 | 23.74847 | 22765 ft | 374 kts | 75° |
| 2026-05-03 23:41 | 54.42044 | 23.79147 | 22312 ft | 371 kts | 75° |
| 2026-05-03 23:41 | 54.42690 | 23.83428 | 21849 ft | 369 kts | 75° |
| 2026-05-03 23:41 | 54.43326 | 23.87685 | 21404 ft | 368 kts | 75° |
| 2026-05-03 23:41 | 54.43958 | 23.91931 | 20952 ft | 366 kts | 75° |
| 2026-05-03 23:42 | 54.44593 | 23.96205 | 20209 ft | 374 kts | 75° |
| 2026-05-03 23:42 | 54.45240 | 24.00556 | 19627 ft | 377 kts | 75° |
| 2026-05-03 23:42 | 54.45887 | 24.04920 | 19155 ft | 376 kts | 75° |
| 2026-05-03 23:42 | 54.46528 | 24.09268 | 18715 ft | 375 kts | 75° |
| 2026-05-03 23:43 | 54.47168 | 24.13608 | 18287 ft | 374 kts | 75° |
| 2026-05-03 23:43 | 54.47812 | 24.17928 | 17809 ft | 372 kts | 73° |
| 2026-05-03 23:43 | 54.48734 | 24.22051 | 17355 ft | 368 kts | 61° |
| 2026-05-03 23:43 | 54.50074 | 24.25757 | 16920 ft | 363 kts | 50° |
| 2026-05-03 23:44 | 54.51609 | 24.29189 | 16473 ft | 361 kts | 50° |
| 2026-05-03 23:44 | 54.53132 | 24.32610 | 16067 ft | 360 kts | 50° |
| 2026-05-03 23:44 | 54.54647 | 24.36024 | 15661 ft | 358 kts | 50° |
| 2026-05-03 23:44 | 54.56153 | 24.39425 | 15270 ft | 356 kts | 50° |
| 2026-05-03 23:45 | 54.57649 | 24.42814 | 14881 ft | 354 kts | 50° |
| 2026-05-03 23:45 | 54.59139 | 24.46190 | 14499 ft | 353 kts | 50° |
| 2026-05-03 23:45 | 54.60621 | 24.49548 | 14128 ft | 351 kts | 50° |
| 2026-05-03 23:45 | 54.62099 | 24.52899 | 13751 ft | 350 kts | 50° |
| 2026-05-03 23:46 | 54.63565 | 24.56230 | 13429 ft | 343 kts | 51° |
| 2026-05-03 23:46 | 54.64968 | 24.59436 | 13094 ft | 328 kts | 51° |
| 2026-05-03 23:46 | 54.66328 | 24.62548 | 12542 ft | 321 kts | 51° |
| 2026-05-03 23:46 | 54.67673 | 24.65621 | 12133 ft | 319 kts | 51° |
| 2026-05-03 23:47 | 54.69001 | 24.68659 | 11842 ft | 315 kts | 51° |
| 2026-05-03 23:47 | 54.70318 | 24.71670 | 11537 ft | 312 kts | 51° |
| 2026-05-03 23:47 | 54.71623 | 24.74657 | 11212 ft | 310 kts | 51° |
| 2026-05-03 23:47 | 54.72916 | 24.77615 | 10884 ft | 307 kts | 51° |
| 2026-05-03 23:48 | 54.74200 | 24.80557 | 10562 ft | 305 kts | 51° |
| 2026-05-03 23:48 | 54.75468 | 24.83470 | 10236 ft | 302 kts | 51° |
| 2026-05-03 23:48 | 54.76725 | 24.86365 | 9905 ft | 299 kts | 51° |
| 2026-05-03 23:48 | 54.77971 | 24.89237 | 9533 ft | 297 kts | 51° |
| 2026-05-03 23:49 | 54.79207 | 24.92091 | 9136 ft | 296 kts | 51° |
| 2026-05-03 23:49 | 54.80437 | 24.94936 | 8730 ft | 294 kts | 51° |
| 2026-05-03 23:49 | 54.81661 | 24.97769 | 8324 ft | 293 kts | 51° |
| 2026-05-03 23:49 | 54.82880 | 25.00589 | 7914 ft | 291 kts | 51° |
| 2026-05-03 23:50 | 54.84093 | 25.03397 | 7498 ft | 290 kts | 51° |
| 2026-05-03 23:50 | 54.84891 | 25.05251 | 7220 ft | 289 kts | 52° |
| 2026-05-03 23:50 | 54.86049 | 25.09439 | 6678 ft | 290 kts | 75° |
| 2026-05-03 23:50 | 54.86265 | 25.12911 | 6258 ft | 290 kts | 92° |
| 2026-05-03 23:51 | 54.85935 | 25.16339 | 5811 ft | 288 kts | 104° |
| 2026-05-03 23:51 | 54.85458 | 25.19720 | 5353 ft | 288 kts | 104° |
| 2026-05-03 23:51 | 54.84987 | 25.23086 | 5035 ft | 284 kts | 105° |
| 2026-05-03 23:51 | 54.84525 | 25.26327 | 4994 ft | 269 kts | 106° |
| 2026-05-03 23:52 | 54.84031 | 25.29422 | 4703 ft | 265 kts | 108° |
| 2026-05-03 23:52 | 54.83514 | 25.32482 | 4348 ft | 263 kts | 108° |
| 2026-05-03 23:52 | 54.83008 | 25.35453 | 4215 ft | 251 kts | 108° |
| 2026-05-03 23:52 | 54.82390 | 25.38198 | 4042 ft | 239 kts | 129° |
| 2026-05-03 23:53 | 54.81130 | 25.39842 | 3833 ft | 221 kts | 168° |
| 2026-05-03 23:53 | 54.79688 | 25.39848 | 3725 ft | 201 kts | 203° |
| 2026-05-03 23:53 | 54.78376 | 25.38970 | 3545 ft | 202 kts | 206° |
| 2026-05-03 23:53 | 54.77069 | 25.38073 | 3306 ft | 202 kts | 206° |
| 2026-05-03 23:54 | 54.75785 | 25.37181 | 3051 ft | 202 kts | 206° |
| 2026-05-03 23:54 | 54.74478 | 25.36270 | 2786 ft | 203 kts | 206° |
| 2026-05-03 23:54 | 54.73168 | 25.35357 | 2518 ft | 202 kts | 206° |
| 2026-05-03 23:54 | 54.71894 | 25.34471 | 2257 ft | 192 kts | 206° |
| 2026-05-03 23:55 | 54.70678 | 25.33626 | 2007 ft | 184 kts | 206° |
| 2026-05-03 23:55 | 54.69902 | 25.33086 | 1862 ft | 178 kts | 206° |
| 2026-05-03 23:55 | 54.68442 | 25.32071 | 1554 ft | 160 kts | 205° |
| 2026-05-03 23:55 | 54.67464 | 25.31393 | 1340 ft | 143 kts | 204° |
| 2026-05-03 23:56 | 54.66577 | 25.30776 | 1146 ft | 134 kts | 202° |
| 2026-05-03 23:56 | 54.65728 | 25.30186 | 966 ft | 130 kts | 202° |
| 2026-05-03 23:56 | 54.64895 | 25.29608 | 783 ft | 129 kts | 201° |
| 2026-05-03 23:56 | 54.64084 | 25.29031 | 650 ft | 117 kts | 204° |
| 2026-05-03 23:57 | 54.63466 | 25.28606 | 614 ft | 73 kts | 200° |
| 2026-05-03 23:57 | 54.63067 | 25.28337 | 610 ft | 46 kts | 201° |
| 2026-05-03 23:57 | 54.62955 | 25.28212 | 603 ft | 1 kts | 276° |
| 2026-05-03 23:57 | 54.62961 | 25.28177 | 603 ft | 9 kts | 294° |
| 2026-05-03 23:58 | 54.62966 | 25.28159 | 603 ft | 0 kts | 294° |
| 2026-05-03 23:58 | 54.62984 | 25.28090 | 603 ft | 16 kts | 295° |
| 2026-05-03 23:58 | 54.63082 | 25.28032 | 607 ft | 17 kts | 19° |
| 2026-05-03 23:58 | 54.63188 | 25.28102 | 609 ft | 16 kts | 19° |
| 2026-05-03 23:59 | 54.63288 | 25.28165 | 615 ft | 16 kts | 21° |
| 2026-05-03 23:59 | 54.63379 | 25.28225 | 622 ft | 27 kts | 23° |
| 2026-05-03 23:59 | 54.63573 | 25.28373 | 615 ft | 30 kts | 23° |
| 2026-05-03 23:59 | 54.63759 | 25.28510 | 630 ft | 28 kts | 22° |
| 2026-05-04 00:00 | 54.63925 | 25.28633 | 638 ft | 23 kts | 25° |
| 2026-05-04 00:00 | 54.64061 | 25.28709 | 645 ft | 20 kts | 6° |
| 2026-05-04 00:00 | 54.64183 | 25.28691 | 648 ft | 11 kts | 355° |
| 2026-05-04 00:00 | 54.64226 | 25.28630 | 650 ft | 9 kts | 265° |
| 2026-05-04 00:01 | 54.64217 | 25.28511 | 645 ft | 11 kts | 262° |
| 2026-05-04 00:01 | 54.64202 | 25.28373 | 641 ft | 12 kts | 246° |
| 2026-05-04 00:01 | 54.64175 | 25.28248 | 641 ft | 11 kts | 270° |
| 2026-05-04 00:01 | 54.64213 | 25.28201 | 638 ft | 6 kts | 0° |
| 2026-05-04 00:02 | 54.64225 | 25.28202 | 638 ft | 0 kts | 2° |
| 2026-05-04 00:02 | 54.64239 | 25.28202 | 639 ft | 0 kts | 0° |